createdAt,value
2023-04-12T00:00:17.214Z,1.24
2023-04-12T00:02:44.103Z,1.26
2023-04-12T00:05:11.065Z,1.42
2023-04-12T00:07:37.736Z,1.31
2023-04-12T00:10:04.244Z,1.31
2023-04-12T00:12:30.701Z,1.47
2023-04-12T00:14:57.205Z,1.41
2023-04-12T00:17:24.074Z,1.25
2023-04-12T00:19:50.605Z,1.34
2023-04-12T00:22:21.718Z,1.38
2023-04-12T00:24:48.383Z,1.37
2023-04-12T00:27:15.230Z,1.27
2023-04-12T00:29:41.770Z,1.32
2023-04-12T00:32:10.147Z,1.38
2023-04-12T00:34:37.299Z,1.35
2023-04-12T00:37:03.739Z,1.28
2023-04-12T00:39:30.230Z,1.49
2023-04-12T00:41:57.147Z,1.46
2023-04-12T00:44:25.960Z,1.55
2023-04-12T00:46:52.569Z,1.59
2023-04-12T00:49:19.276Z,1.48
2023-04-12T00:51:45.910Z,1.68
2023-04-12T00:54:14.623Z,1.66
2023-04-12T00:56:41.070Z,1.71
2023-04-12T00:59:08.659Z,1.63
2023-04-12T01:01:35.395Z,1.64
2023-04-12T01:04:02.030Z,1.71
2023-04-12T01:06:28.586Z,1.79
2023-04-12T01:08:55.248Z,1.88
2023-04-12T01:11:22.113Z,1.88
2023-04-12T01:13:48.981Z,1.79
2023-04-12T01:16:15.587Z,1.87
2023-04-12T01:18:42.453Z,1.86
2023-04-12T01:21:09.892Z,1.79
2023-04-12T01:23:36.422Z,1.72
2023-04-12T01:26:03.865Z,1.62
2023-04-12T01:28:30.519Z,1.68
2023-04-12T01:30:57.364Z,1.64
2023-04-12T01:33:24.167Z,1.70
2023-04-12T01:38:20.155Z,1.61
2023-04-12T01:40:47.105Z,1.65
2023-04-12T01:43:13.767Z,1.92
2023-04-12T01:45:41.325Z,1.96
2023-04-12T01:48:11.155Z,1.81
2023-04-12T01:50:38.765Z,1.82
2023-04-12T01:53:05.598Z,1.83
2023-04-12T01:55:32.405Z,1.76
2023-04-12T01:57:59.312Z,1.73
2023-04-12T02:00:25.831Z,1.99
2023-04-12T02:02:52.878Z,2.08
2023-04-12T02:05:19.769Z,2.01
2023-04-12T02:07:46.581Z,1.97
2023-04-12T02:10:13.155Z,1.94
2023-04-12T02:12:39.703Z,2.04
2023-04-12T02:15:06.310Z,2.16
2023-04-12T02:17:33.114Z,2.22
2023-04-12T02:19:59.973Z,2.11
2023-04-12T02:22:26.481Z,1.97
2023-04-12T02:24:54.104Z,2.21
2023-04-12T02:27:21.641Z,1.98
2023-04-12T02:29:48.136Z,2.05
2023-04-12T02:32:14.626Z,2.08
2023-04-12T02:34:41.181Z,2.03
2023-04-12T02:37:07.764Z,1.93
2023-04-12T02:39:34.301Z,1.80
2023-04-12T02:42:00.914Z,2.10
2023-04-12T02:44:27.694Z,2.10
2023-04-12T02:46:54.615Z,2.06
2023-04-12T02:49:21.195Z,2.16
2023-04-12T02:51:48.206Z,2.18
2023-04-12T02:54:14.787Z,2.06
2023-04-12T02:56:41.414Z,2.29
2023-04-12T02:59:08.060Z,2.06
2023-04-12T03:01:35.024Z,2.19
2023-04-12T03:04:01.846Z,2.37
2023-04-12T03:06:28.518Z,1.82
2023-04-12T03:08:55.086Z,2.12
2023-04-12T03:11:21.718Z,2.06
2023-04-12T03:13:48.229Z,2.29
2023-04-12T03:16:15.122Z,2.09
2023-04-12T03:18:41.694Z,2.20
2023-04-12T03:21:08.245Z,1.74
2023-04-12T03:23:34.811Z,1.87
2023-04-12T03:26:01.538Z,1.87
2023-04-12T03:28:28.095Z,2.23
2023-04-12T03:30:54.665Z,2.10
2023-04-12T03:33:21.318Z,2.22
2023-04-12T03:35:47.890Z,2.22
2023-04-12T03:38:14.426Z,1.94
2023-04-12T03:40:41.028Z,1.98
2023-04-12T03:43:07.600Z,2.06
2023-04-12T03:45:34.210Z,2.13
2023-04-12T03:48:00.875Z,1.89
2023-04-12T03:50:27.445Z,1.94
2023-04-12T03:52:55.988Z,2.23
2023-04-12T03:55:24.924Z,2.07
2023-04-12T03:57:51.743Z,1.91
2023-04-12T04:00:18.363Z,1.87
2023-04-12T04:02:44.991Z,1.97
2023-04-12T04:05:11.653Z,2.06
2023-04-12T04:07:38.259Z,1.89
2023-04-12T04:10:05.004Z,1.96
2023-04-12T04:12:31.486Z,1.84
2023-04-12T04:14:58.210Z,2.03
2023-04-12T04:17:24.765Z,2.08
2023-04-12T04:19:51.323Z,1.72
2023-04-12T04:22:17.930Z,1.90
2023-04-12T04:24:44.754Z,1.61
2023-04-12T04:27:11.322Z,1.86
2023-04-12T04:29:38.255Z,1.81
2023-04-12T04:32:04.887Z,1.53
2023-04-12T04:34:31.425Z,1.81
2023-04-12T04:36:58.041Z,1.87
2023-04-12T04:39:24.577Z,1.94
2023-04-12T04:41:51.034Z,1.87
2023-04-12T04:44:18.327Z,1.70
2023-04-12T04:46:45.118Z,1.98
2023-04-12T04:49:11.637Z,1.69
2023-04-12T04:51:38.217Z,1.54
2023-04-12T04:54:04.734Z,1.70
2023-04-12T04:56:31.258Z,1.45
2023-04-12T04:58:57.730Z,1.67
2023-04-12T05:01:24.452Z,1.62
2023-04-12T05:03:52.425Z,1.59
2023-04-12T05:06:19.535Z,1.56
2023-04-12T05:08:46.347Z,1.43
2023-04-12T05:11:13.107Z,1.41
2023-04-12T05:13:39.616Z,1.38
2023-04-12T05:16:07.179Z,1.43
2023-04-12T05:18:33.787Z,1.37
2023-04-12T05:21:00.285Z,1.39
2023-04-12T05:23:27.705Z,1.67
2023-04-12T05:25:54.319Z,1.71
2023-04-12T05:28:20.853Z,1.65
2023-04-12T05:30:47.481Z,1.59
2023-04-12T05:33:14.033Z,1.38
2023-04-12T05:35:40.610Z,1.48
2023-04-12T05:38:07.989Z,1.54
2023-04-12T05:40:36.902Z,1.59
2023-04-12T05:43:03.841Z,1.50
2023-04-12T05:45:30.344Z,1.55
2023-04-12T05:47:57.771Z,1.53
2023-04-12T05:50:24.375Z,1.53
2023-04-12T05:52:53.699Z,1.54
2023-04-12T05:55:20.623Z,1.53
2023-04-12T05:57:47.135Z,1.44
2023-04-12T06:00:13.701Z,1.48
2023-04-12T06:02:41.396Z,1.45
2023-04-12T06:05:09.037Z,1.40
2023-04-12T06:07:38.382Z,1.44
2023-04-12T06:10:05.310Z,1.47
2023-04-12T06:12:31.918Z,1.60
2023-04-12T06:14:58.797Z,1.41
2023-04-12T06:17:27.804Z,1.88
2023-04-12T06:19:54.604Z,1.77
2023-04-12T06:22:21.482Z,1.74
2023-04-12T06:24:48.017Z,1.48
2023-04-12T06:27:14.578Z,1.68
2023-04-12T06:29:41.359Z,1.59
2023-04-12T06:32:07.946Z,1.75
2023-04-12T06:34:34.960Z,1.77
2023-04-12T06:37:01.777Z,1.67
2023-04-12T06:39:28.752Z,1.89
2023-04-12T06:41:55.337Z,1.94
2023-04-12T06:44:22.324Z,1.52
2023-04-12T06:46:49.897Z,1.94
2023-04-12T06:49:16.457Z,2.55
2023-04-12T06:51:43.132Z,2.03
2023-04-12T06:54:11.992Z,1.76
2023-04-12T06:56:38.829Z,2.16
2023-04-12T06:59:05.483Z,1.78
2023-04-12T07:01:32.428Z,1.80
2023-04-12T07:03:59.914Z,1.89
2023-04-12T07:06:27.265Z,1.76
2023-04-12T07:08:53.772Z,2.05
2023-04-12T07:11:22.066Z,2.28
2023-04-12T07:13:49.141Z,2.69
2023-04-12T07:16:15.889Z,2.14
2023-04-12T07:18:44.703Z,2.04
2023-04-12T07:21:11.490Z,1.76
2023-04-12T07:23:38.452Z,2.10
2023-04-12T07:26:05.159Z,2.00
2023-04-12T07:28:31.923Z,2.00
2023-04-12T07:30:58.449Z,1.94
2023-04-12T07:33:28.047Z,2.12
2023-04-12T07:35:56.891Z,2.22
2023-04-12T07:38:24.789Z,1.92
2023-04-12T07:40:51.500Z,1.98
2023-04-12T07:43:18.415Z,1.67
2023-04-12T07:45:45.324Z,1.59
2023-04-12T07:48:11.878Z,1.83
2023-04-12T07:50:38.495Z,1.62
2023-04-12T07:53:07.456Z,1.66
2023-04-12T07:55:34.025Z,2.21
2023-04-12T07:58:00.621Z,1.77
2023-04-12T08:00:27.253Z,1.71
2023-04-12T08:02:53.885Z,1.82
2023-04-12T08:05:21.593Z,1.88
2023-04-12T08:07:50.667Z,2.21
2023-04-12T08:10:17.282Z,2.13
2023-04-12T08:12:49.277Z,2.41
2023-04-12T08:15:15.780Z,2.09
2023-04-12T08:17:42.638Z,3.46
2023-04-12T08:20:13.472Z,1.81
2023-04-12T08:22:40.388Z,1.86
2023-04-12T08:25:06.949Z,1.75
2023-04-12T08:27:33.492Z,1.88
2023-04-12T08:30:00.328Z,1.81
2023-04-12T08:32:26.944Z,1.85
2023-04-12T08:34:54.878Z,1.89
2023-04-12T08:37:21.452Z,2.07
2023-04-12T08:39:49.110Z,2.39
2023-04-12T08:42:15.915Z,2.09
2023-04-12T08:44:42.707Z,2.35
2023-04-12T08:47:13.856Z,2.56
2023-04-12T08:49:40.410Z,2.47
2023-04-12T08:52:08.752Z,2.12
2023-04-12T08:54:35.331Z,2.35
2023-04-12T08:57:02.587Z,2.28
2023-04-12T08:59:29.174Z,2.14
2023-04-12T09:01:56.252Z,2.05
2023-04-12T09:04:23.173Z,2.33
2023-04-12T09:06:50.643Z,3.51
2023-04-12T09:09:17.323Z,2.32
2023-04-12T09:11:46.595Z,2.08
2023-04-12T09:14:13.440Z,1.89
2023-04-12T09:16:41.570Z,2.04
2023-04-12T09:19:08.537Z,2.12
2023-04-12T09:21:35.181Z,2.19
2023-04-12T09:24:02.041Z,1.98
2023-04-12T09:26:29.646Z,2.33
2023-04-12T09:28:56.205Z,2.01
2023-04-12T09:31:22.808Z,2.00
2023-04-12T09:33:49.632Z,2.18
2023-04-12T09:36:16.439Z,2.09
2023-04-12T09:38:43.255Z,1.96
2023-04-12T09:41:09.842Z,2.07
2023-04-12T09:43:36.670Z,2.07
2023-04-12T09:46:03.230Z,2.31
2023-04-12T09:48:33.914Z,1.95
2023-04-12T09:51:00.502Z,2.83
2023-04-12T09:53:29.457Z,2.21
2023-04-12T09:55:56.005Z,2.19
2023-04-12T09:58:28.146Z,1.82
2023-04-12T10:00:55.933Z,2.23
2023-04-12T10:03:22.702Z,2.04
2023-04-12T10:05:49.387Z,2.26
2023-04-12T10:08:16.091Z,2.12
2023-04-12T10:10:43.042Z,2.02
2023-04-12T10:13:09.894Z,2.11
2023-04-12T10:15:38.641Z,1.87
2023-04-12T10:18:05.188Z,1.99
2023-04-12T10:20:31.800Z,2.00
2023-04-12T10:23:00.907Z,2.15
2023-04-12T10:25:27.859Z,2.42
2023-04-12T10:27:55.613Z,2.05
2023-04-12T10:30:22.394Z,2.08
2023-04-12T10:32:49.048Z,2.11
2023-04-12T10:35:16.332Z,1.90
2023-04-12T10:37:43.739Z,2.42
2023-04-12T10:40:10.680Z,2.50
2023-04-12T10:42:40.179Z,2.20
2023-04-12T10:45:06.723Z,2.18
2023-04-12T10:47:33.393Z,2.15
2023-04-12T10:50:02.868Z,2.35
2023-04-12T10:52:29.821Z,2.12
2023-04-12T10:54:56.626Z,2.16
2023-04-12T10:57:23.253Z,2.52
2023-04-12T10:59:50.002Z,3.25
2023-04-12T11:02:17.082Z,2.60
2023-04-12T11:04:44.803Z,2.54
2023-04-12T11:07:12.148Z,2.63
2023-04-12T11:09:39.012Z,2.50
2023-04-12T11:12:08.180Z,2.51
2023-04-12T11:14:36.908Z,2.42
2023-04-12T11:17:05.779Z,2.61
2023-04-12T11:19:32.767Z,2.57
2023-04-12T11:21:59.417Z,2.91
2023-04-12T11:24:25.967Z,2.58
2023-04-12T11:27:00.042Z,2.67
2023-04-12T11:29:26.578Z,2.59
2023-04-12T11:31:54.516Z,2.60
2023-04-12T11:34:22.376Z,2.49
2023-04-12T11:36:49.252Z,2.62
2023-04-12T11:39:16.260Z,2.58
2023-04-12T11:41:42.874Z,2.64
2023-04-12T11:44:09.441Z,2.87
2023-04-12T11:46:36.417Z,2.53
2023-04-12T11:49:02.971Z,2.56
2023-04-12T11:51:32.376Z,2.59
2023-04-12T11:53:59.623Z,2.65
2023-04-12T11:56:26.511Z,2.88
2023-04-12T11:58:53.288Z,2.37
2023-04-12T12:01:20.038Z,2.59
2023-04-12T12:03:49.440Z,2.55
2023-04-12T12:06:19.910Z,2.55
2023-04-12T12:08:47.049Z,2.43
2023-04-12T12:11:13.913Z,3.05
2023-04-12T12:13:43.524Z,2.92
2023-04-12T12:16:10.157Z,2.70
2023-04-12T12:18:39.175Z,2.91
2023-04-12T12:21:08.215Z,2.92
2023-04-12T12:23:35.132Z,2.68
2023-04-12T12:26:14.302Z,2.47
2023-04-12T12:28:43.973Z,2.67
2023-04-12T12:31:11.235Z,2.81
2023-04-12T12:34:00.265Z,2.57
2023-04-12T12:36:26.767Z,2.61
2023-04-12T12:38:53.680Z,2.35
2023-04-12T12:41:20.185Z,2.49
2023-04-12T12:43:47.438Z,2.70
2023-04-12T12:46:14.150Z,2.63
2023-04-12T12:48:41.755Z,2.53
2023-04-12T12:51:08.539Z,2.19
2023-04-12T12:53:35.834Z,2.01
2023-04-12T12:56:03.454Z,2.21
2023-04-12T12:58:31.054Z,2.05
2023-04-12T13:00:57.949Z,2.30
2023-04-12T13:03:24.743Z,2.08
2023-04-12T13:05:51.721Z,1.99
2023-04-12T13:08:18.978Z,2.09
2023-04-12T13:10:45.549Z,2.28
2023-04-12T13:13:13.056Z,2.05
2023-04-12T13:15:40.592Z,1.67
2023-04-12T13:18:07.204Z,2.01
2023-04-12T13:20:34.115Z,2.08
2023-04-12T13:23:01.074Z,2.03
2023-04-12T13:25:27.565Z,1.95
2023-04-12T13:27:54.151Z,1.90
2023-04-12T13:30:23.727Z,1.86
2023-04-12T13:32:51.281Z,1.78
2023-04-12T13:35:17.920Z,1.87
2023-04-12T13:37:44.481Z,2.08
2023-04-12T13:40:12.110Z,2.13
2023-04-12T13:42:39.003Z,1.81
2023-04-12T13:45:05.874Z,1.93
2023-04-12T13:47:32.897Z,2.31
2023-04-12T13:49:59.532Z,2.27
2023-04-12T13:52:26.418Z,2.27
2023-04-12T13:54:52.950Z,2.09
2023-04-12T13:57:19.587Z,2.37
2023-04-12T13:59:47.152Z,2.47
2023-04-12T14:02:14.273Z,2.62
2023-04-12T14:04:41.142Z,2.50
2023-04-12T14:07:07.707Z,2.65
2023-04-12T14:09:34.528Z,2.55
2023-04-12T14:12:01.181Z,3.15
2023-04-12T14:14:28.235Z,3.39
2023-04-12T14:16:57.713Z,3.16
2023-04-12T14:19:24.759Z,3.28
2023-04-12T14:21:51.862Z,3.15
2023-04-12T14:24:18.409Z,3.20
2023-04-12T14:26:45.167Z,4.01
2023-04-12T14:29:11.885Z,3.44
2023-04-12T14:31:39.065Z,3.26
2023-04-12T14:34:05.989Z,3.36
2023-04-12T14:36:34.912Z,3.21
2023-04-12T14:39:01.839Z,3.09
2023-04-12T14:41:31.684Z,3.26
2023-04-12T14:43:58.557Z,2.88
2023-04-12T14:46:25.306Z,3.13
2023-04-12T14:48:52.232Z,3.00
2023-04-12T14:51:19.215Z,3.18
2023-04-12T14:53:45.768Z,3.33
2023-04-12T14:56:12.573Z,3.02
2023-04-12T14:58:39.266Z,3.34
2023-04-12T15:01:06.337Z,3.50
2023-04-12T15:03:32.929Z,3.94
2023-04-12T15:05:59.477Z,4.41
2023-04-12T15:08:26.896Z,3.50
2023-04-12T15:10:53.604Z,3.36
2023-04-12T15:13:21.322Z,3.78
2023-04-12T15:15:49.452Z,3.67
2023-04-12T15:18:16.251Z,4.05
2023-04-12T15:23:23.248Z,4.33
2023-04-12T15:25:49.926Z,4.36
2023-04-12T15:28:16.433Z,4.04
2023-04-12T15:30:42.967Z,3.39
2023-04-12T15:33:09.656Z,3.15
2023-04-12T15:35:38.181Z,2.55
2023-04-12T15:38:04.940Z,2.82
2023-04-12T15:40:31.746Z,2.78
2023-04-12T15:42:58.411Z,3.52
2023-04-12T15:45:25.280Z,2.97
2023-04-12T15:47:51.892Z,2.80
2023-04-12T15:50:18.386Z,2.59
2023-04-12T15:52:44.964Z,2.33
2023-04-12T15:55:13.749Z,2.27
2023-04-12T15:57:40.328Z,2.44
2023-04-12T16:00:06.906Z,2.48
2023-04-12T16:02:35.134Z,2.80
2023-04-12T16:05:02.573Z,2.47
2023-04-12T16:07:30.311Z,2.70
2023-04-12T16:09:56.982Z,3.04
2023-04-12T16:12:24.102Z,2.92
2023-04-12T16:14:51.897Z,3.29
2023-04-12T16:17:18.924Z,3.32
2023-04-12T16:19:52.944Z,3.55
2023-04-12T16:22:22.077Z,3.41
2023-04-12T16:24:48.735Z,3.60
2023-04-12T16:27:16.174Z,2.99
2023-04-12T16:29:42.995Z,3.00
2023-04-12T16:32:09.937Z,3.42
2023-04-12T16:34:37.442Z,3.49
2023-04-12T16:37:04.261Z,3.44
2023-04-12T16:39:31.063Z,2.77
2023-04-12T16:41:59.835Z,3.00
2023-04-12T16:44:26.441Z,2.83
2023-04-12T16:46:53.152Z,2.96
2023-04-12T16:49:20.015Z,2.61
2023-04-12T16:51:46.552Z,2.77
2023-04-12T16:54:13.537Z,2.43
2023-04-12T16:56:40.470Z,2.16
2023-04-12T16:59:08.431Z,2.20
2023-04-12T17:01:34.960Z,2.30
2023-04-12T17:04:02.046Z,2.87
2023-04-12T17:06:29.060Z,2.80
2023-04-12T17:08:56.052Z,2.26
2023-04-12T17:11:23.628Z,2.69
2023-04-12T17:13:50.211Z,3.54
2023-04-12T17:16:17.148Z,3.23
2023-04-12T17:18:43.684Z,2.82
2023-04-12T17:21:10.195Z,3.60
2023-04-12T17:23:37.315Z,2.43
2023-04-12T17:26:04.390Z,2.48
2023-04-12T17:28:31.169Z,2.83
2023-04-12T17:30:57.610Z,2.00
2023-04-12T17:33:24.390Z,2.25
2023-04-12T17:35:51.936Z,2.46
2023-04-12T17:38:18.672Z,2.99
2023-04-12T17:40:45.458Z,2.60
2023-04-12T17:43:12.039Z,2.34
2023-04-12T17:45:38.865Z,1.66
2023-04-12T17:48:07.074Z,1.28
2023-04-12T17:50:33.748Z,1.72
2023-04-12T17:53:00.369Z,4.51
2023-04-12T17:55:27.270Z,2.67
2023-04-12T17:57:53.784Z,1.62
2023-04-12T18:00:20.300Z,1.15
2023-04-12T18:02:47.380Z,1.36
2023-04-12T18:05:14.013Z,2.44
2023-04-12T18:07:42.613Z,1.83
2023-04-12T18:10:09.332Z,1.68
2023-04-12T18:12:35.876Z,2.08
2023-04-12T18:15:12.590Z,2.36
2023-04-12T18:17:39.158Z,2.44
2023-04-12T18:20:06.675Z,2.57
2023-04-12T18:22:33.265Z,2.53
2023-04-12T18:24:59.828Z,2.57
2023-04-12T18:27:28.688Z,2.76
2023-04-12T18:29:55.287Z,3.05
2023-04-12T18:32:22.087Z,3.63
2023-04-12T18:34:48.762Z,3.23
2023-04-12T18:37:15.296Z,2.64
2023-04-12T18:39:41.817Z,2.84
2023-04-12T18:42:10.971Z,2.92
2023-04-12T18:44:37.577Z,2.85
2023-04-12T18:47:04.279Z,2.60
2023-04-12T18:49:33.292Z,2.37
2023-04-12T18:51:59.941Z,2.93
2023-04-12T18:54:26.519Z,3.60
2023-04-12T18:56:53.111Z,3.57
2023-04-12T18:59:19.803Z,2.81
2023-04-12T19:01:46.440Z,2.12
2023-04-12T19:04:13.140Z,2.26
2023-04-12T19:06:40.133Z,1.99
2023-04-12T19:09:07.045Z,1.84
2023-04-12T19:11:36.707Z,1.62
2023-04-12T19:14:03.655Z,1.50
2023-04-12T19:16:30.596Z,1.44
2023-04-12T19:18:57.341Z,1.43
2023-04-12T19:21:25.750Z,1.27
2023-04-12T19:23:52.271Z,1.46
2023-04-12T19:26:18.861Z,1.72
2023-04-12T19:28:45.687Z,1.64
2023-04-12T19:31:12.408Z,1.27
2023-04-12T19:33:39.292Z,1.52
2023-04-12T19:36:08.173Z,1.12
2023-04-12T19:38:35.661Z,1.09
2023-04-12T19:41:02.257Z,1.14
2023-04-12T19:43:28.858Z,0.79
2023-04-12T19:45:55.365Z,0.65
2023-04-12T19:48:22.270Z,0.50
2023-04-12T19:50:54.022Z,0.54
2023-04-12T19:53:22.248Z,0.59
2023-04-12T19:55:48.771Z,0.74
2023-04-12T19:58:15.629Z,0.76
2023-04-12T20:00:42.136Z,1.20
2023-04-12T20:03:08.953Z,1.20
2023-04-12T20:05:35.608Z,1.11
2023-04-12T20:08:04.433Z,0.89
2023-04-12T20:10:31.973Z,0.95
2023-04-12T20:12:59.394Z,0.87
2023-04-12T20:15:25.973Z,0.82
2023-04-12T20:17:52.949Z,1.08
2023-04-12T20:20:20.755Z,1.36
2023-04-12T20:22:48.183Z,0.94
2023-04-12T20:25:14.632Z,0.77
2023-04-12T20:27:41.261Z,0.97
2023-04-12T20:30:07.895Z,0.79
2023-04-12T20:32:34.535Z,0.87
2023-04-12T20:35:01.534Z,0.77
2023-04-12T20:37:28.780Z,0.73
2023-04-12T20:39:55.672Z,0.66
2023-04-12T20:42:22.223Z,0.79
2023-04-12T20:44:49.026Z,0.73
2023-04-12T20:47:15.724Z,1.96
2023-04-12T20:49:42.400Z,0.81
2023-04-12T20:52:09.258Z,0.66
2023-04-12T20:54:35.798Z,0.79
2023-04-12T20:57:02.407Z,0.61
2023-04-12T20:59:29.289Z,0.62
2023-04-12T21:01:55.904Z,0.66
2023-04-12T21:04:22.977Z,0.62
2023-04-12T21:06:49.590Z,0.60
2023-04-12T21:09:16.996Z,0.62
2023-04-12T21:11:43.662Z,0.75
2023-04-12T21:14:10.503Z,0.63
2023-04-12T21:16:37.190Z,0.56
2023-04-12T21:19:03.748Z,0.62
2023-04-12T21:21:30.637Z,0.64
2023-04-12T21:23:57.491Z,0.56
2023-04-12T21:26:24.388Z,0.73
2023-04-12T21:28:50.997Z,0.86
2023-04-12T21:31:17.601Z,0.57
2023-04-12T21:33:44.788Z,0.73
2023-04-12T21:36:11.414Z,0.63
2023-04-12T21:38:38.260Z,0.78
2023-04-12T21:41:05.173Z,0.71
2023-04-12T21:43:32.760Z,0.57
2023-04-12T21:45:59.377Z,0.66
2023-04-12T21:48:26.023Z,0.63
2023-04-12T21:50:52.657Z,0.76
2023-04-12T21:53:19.465Z,0.84
2023-04-12T21:55:46.300Z,0.68
2023-04-12T21:58:13.051Z,0.85
2023-04-12T22:00:40.731Z,0.75
2023-04-12T22:03:07.668Z,0.77
2023-04-12T22:05:36.885Z,0.78
2023-04-12T22:08:06.525Z,0.73
2023-04-12T22:10:42.088Z,0.77
2023-04-12T22:13:08.638Z,0.77
2023-04-12T22:15:35.184Z,0.79
2023-04-12T22:18:01.782Z,0.72
2023-04-12T22:20:28.737Z,1.01
2023-04-12T22:22:59.290Z,1.02
2023-04-12T22:25:26.006Z,0.72
2023-04-12T22:27:52.881Z,0.76
2023-04-12T22:30:19.472Z,0.82
2023-04-12T22:32:47.181Z,0.88
2023-04-12T22:35:13.764Z,0.82
2023-04-12T22:37:40.601Z,0.86
2023-04-12T22:40:07.041Z,1.00
2023-04-12T22:42:33.923Z,0.86
2023-04-12T22:45:00.848Z,0.78
2023-04-12T22:47:27.697Z,1.10
2023-04-12T22:49:54.190Z,1.00
2023-04-12T22:52:28.276Z,1.21
2023-04-12T22:54:54.816Z,1.04
2023-04-12T22:57:21.349Z,0.85
2023-04-12T22:59:47.994Z,0.73
2023-04-12T23:02:14.992Z,1.00
2023-04-12T23:04:42.457Z,0.80
2023-04-12T23:07:09.091Z,1.03
2023-04-12T23:09:35.692Z,1.06
2023-04-12T23:12:02.247Z,0.95
2023-04-12T23:14:30.915Z,1.18
2023-04-12T23:16:59.992Z,0.98
2023-04-12T23:19:26.877Z,0.84
2023-04-12T23:21:53.402Z,0.92
2023-04-12T23:24:20.003Z,0.88
2023-04-12T23:26:46.530Z,0.98
2023-04-12T23:29:13.026Z,0.98
2023-04-12T23:31:39.641Z,1.09
2023-04-12T23:34:06.498Z,0.91
2023-04-12T23:36:33.983Z,0.80
2023-04-12T23:39:00.529Z,0.91
2023-04-12T23:41:28.216Z,0.98
2023-04-12T23:43:54.671Z,1.06
2023-04-12T23:46:21.369Z,1.73
2023-04-12T23:48:50.414Z,1.94
2023-04-12T23:51:17.263Z,2.04
2023-04-12T23:53:44.017Z,1.90
2023-04-12T23:56:10.766Z,1.56
2023-04-12T23:58:37.607Z,1.06
